Time;durP1;ratioP1;P1;durP2;ratioP2;P2;SDS_P1;SDS_P2;PMS_P1;PMS_P2;Temp;Humidity;BMP_temperature;BMP_pressure;BME280_temperature;BME280_humidity;BME280_pressure;Samples;Min_cycle;Max_cycle;Signal;HPM_P1;HPM_P2
2023/10/07 00:00:48;;;;;;;13.25;4.78;;;;;;;-143.29;100.00;62188.47;5050964;28;20033;-93
2023/10/07 00:03:16;;;;;;;9.93;4.18;;;;;;;-143.29;100.00;62188.47;5037738;28;20029;-93
2023/10/07 00:05:42;;;;;;;10.25;4.10;;;;;;;-143.29;100.00;62188.47;5042079;28;20040;-93
2023/10/07 00:08:12;;;;;;;9.50;3.88;;;;;;;-143.29;100.00;62188.47;5033797;28;20518;-93
2023/10/07 00:10:39;;;;;;;11.13;3.67;;;;;;;-143.29;100.00;62188.47;5033574;28;20116;-92
2023/10/07 00:13:09;;;;;;;11.60;3.70;;;;;;;-143.29;100.00;62188.47;5037916;28;20029;-93
2023/10/07 00:15:39;;;;;;;13.80;3.83;;;;;;;-143.29;100.00;62188.47;5052290;28;20051;-93
2023/10/07 00:18:15;;;;;;;9.23;4.13;;;;;;;-143.29;100.00;62188.47;5053373;28;20024;-93
2023/10/07 00:21:04;;;;;;;7.13;3.60;;;;;;;-143.29;100.00;62188.47;5071437;28;20035;-93
2023/10/07 00:23:28;;;;;;;10.00;3.80;;;;;;;-143.29;100.00;62188.47;5074658;28;20498;-93
2023/10/07 00:25:56;;;;;;;10.60;4.38;;;;;;;-143.29;100.00;62188.47;5075510;28;20059;-92
2023/10/07 00:28:32;;;;;;;11.93;3.58;;;;;;;-143.29;100.00;62188.47;5057551;28;20111;-93
2023/10/07 00:31:02;;;;;;;15.65;4.05;;;;;;;-143.29;100.00;62188.47;5073621;28;20082;-94
2023/10/07 00:33:30;;;;;;;8.00;3.33;;;;;;;-143.29;100.00;62188.47;5075138;28;20458;-93
2023/10/07 00:35:56;;;;;;;6.30;3.72;;;;;;;-143.29;100.00;62188.47;5075090;28;20028;-93
2023/10/07 00:38:24;;;;;;;7.38;3.58;;;;;;;-143.29;100.00;62188.47;5055659;28;20394;-92
2023/10/07 00:40:54;;;;;;;8.43;3.50;;;;;;;-143.29;100.00;62188.47;5057192;28;20114;-92
2023/10/07 00:43:27;;;;;;;10.05;3.90;;;;;;;-143.29;100.00;62188.47;5056981;28;20501;-93
2023/10/07 00:46:10;;;;;;;11.25;3.33;;;;;;;-143.29;100.00;62188.47;5056951;28;20394;-93
2023/10/07 00:48:47;;;;;;;9.05;4.00;;;;;;;-143.29;100.00;62188.47;5074839;28;20029;-93
2023/10/07 00:51:17;;;;;;;8.60;3.97;;;;;;;-143.29;100.00;62188.47;5056724;28;20024;-93
2023/10/07 00:53:45;;;;;;;7.47;3.75;;;;;;;-143.29;100.00;62188.47;5044314;28;20052;-92
2023/10/07 00:56:14;;;;;;;5.82;3.03;;;;;;;-143.29;100.00;62188.47;5033446;28;20021;-94
2023/10/07 00:58:41;;;;;;;11.07;3.03;;;;;;;-143.29;100.00;62188.47;5033746;28;20028;-94
2023/10/07 01:01:10;;;;;;;9.15;3.03;;;;;;;-143.29;100.00;62188.47;5033425;28;20053;-93
2023/10/07 01:03:47;;;;;;;12.93;3.55;;;;;;;-143.29;100.00;62188.47;5034347;28;20034;-93
2023/10/07 01:06:26;;;;;;;9.48;3.03;;;;;;;-143.29;100.00;62188.47;5033451;28;20065;-93
2023/10/07 01:08:58;;;;;;;10.32;3.22;;;;;;;-143.29;100.00;62188.47;5056839;28;20082;-92
2023/10/07 01:11:26;;;;;;;11.27;2.92;;;;;;;-143.29;100.00;62188.47;5056522;28;20017;-93
2023/10/07 01:13:51;;;;;;;9.23;2.78;;;;;;;-143.29;100.00;62188.47;5074587;28;20020;-93
2023/10/07 01:19:04;;;;;;;4.68;2.47;;;;;;;-143.29;100.00;62188.47;5074426;28;20059;-92
2023/10/07 01:21:33;;;;;;;7.80;3.10;;;;;;;-143.29;100.00;62188.47;5056329;28;20422;-93
2023/10/07 01:23:59;;;;;;;9.98;3.15;;;;;;;-143.29;100.00;62188.47;5072844;28;20027;-92
2023/10/07 01:26:33;;;;;;;10.52;3.10;;;;;;;-143.29;100.00;62188.47;5056500;28;20017;-92
2023/10/07 01:29:12;;;;;;;7.30;3.25;;;;;;;-143.29;100.00;62188.47;5056473;28;20021;-93
2023/10/07 01:31:59;;;;;;;7.40;3.20;;;;;;;-143.29;100.00;62188.47;5056283;28;20025;-92
2023/10/07 01:34:30;;;;;;;9.90;3.20;;;;;;;-143.29;100.00;62188.47;5055541;28;20056;-93
2023/10/07 01:36:57;;;;;;;8.98;3.67;;;;;;;-143.29;100.00;62188.47;5056050;28;20444;-92
2023/10/07 01:39:23;;;;;;;6.20;3.30;;;;;;;-143.29;100.00;62188.47;5053953;28;20035;-92
2023/10/07 01:41:49;;;;;;;8.35;3.00;;;;;;;-143.29;100.00;62188.47;5053875;28;20100;-93
2023/10/07 01:44:15;;;;;;;7.15;3.58;;;;;;;-143.29;100.00;62188.47;5053991;28;20032;-93
2023/10/07 01:46:41;;;;;;;6.07;3.15;;;;;;;-143.29;100.00;62188.47;5036210;28;20021;-92
2023/10/07 01:49:12;;;;;;;14.07;3.95;;;;;;;-143.29;100.00;62188.47;5054096;28;20025;-93
2023/10/07 01:51:44;;;;;;;5.63;2.92;;;;;;;-143.29;100.00;62188.47;5035962;28;20028;-93
2023/10/07 01:54:11;;;;;;;8.25;3.05;;;;;;;-143.29;100.00;62188.47;5073508;28;20025;-94
2023/10/07 01:56:38;;;;;;;8.45;3.05;;;;;;;-143.29;100.00;62188.47;5055833;28;20436;-92
2023/10/07 01:59:28;;;;;;;9.35;2.55;;;;;;;-143.29;100.00;62188.47;5072229;28;20077;-93
2023/10/07 02:01:51;;;;;;;14.13;3.25;;;;;;;-143.29;100.00;62188.47;5060674;28;20033;-93
2023/10/07 02:04:18;;;;;;;6.88;2.78;;;;;;;-143.29;100.00;62188.47;5035529;28;20415;-93
2023/10/07 02:06:54;;;;;;;6.70;2.80;;;;;;;-143.29;100.00;62188.47;5036495;28;20025;-93
2023/10/07 02:09:27;;;;;;;9.57;3.10;;;;;;;-143.29;100.00;62188.47;5054213;28;20107;-92
2023/10/07 02:12:00;;;;;;;6.88;3.42;;;;;;;-143.29;100.00;62188.47;5073206;28;20047;-93
2023/10/07 02:14:27;;;;;;;11.77;4.32;;;;;;;-143.29;100.00;62188.47;5073195;28;20112;-92
2023/10/07 02:16:53;;;;;;;7.60;3.55;;;;;;;-143.29;100.00;62188.47;5055212;28;20063;-92
2023/10/07 02:19:29;;;;;;;11.55;3.90;;;;;;;-143.29;100.00;62188.47;5055238;28;20078;-93
2023/10/07 02:21:59;;;;;;;5.47;3.25;;;;;;;-143.29;100.00;62188.47;5055244;28;20027;-93
2023/10/07 02:24:31;;;;;;;9.18;4.28;;;;;;;-143.29;100.00;62188.47;5057840;28;20395;-93
2023/10/07 02:27:07;;;;;;;10.73;5.60;;;;;;;-143.29;100.00;62188.47;5060993;28;20021;-92
2023/10/07 02:29:34;;;;;;;6.38;3.63;;;;;;;-143.29;100.00;62188.47;5055041;28;20021;-93
2023/10/07 02:32:12;;;;;;;11.82;4.20;;;;;;;-143.29;100.00;62188.47;5072868;28;20103;-95
2023/10/07 02:34:51;;;;;;;8.48;4.30;;;;;;;-143.29;100.00;62188.47;5055059;28;20408;-93
2023/10/07 02:37:17;;;;;;;10.52;5.28;;;;;;;-143.29;100.00;62188.47;5054724;28;20062;-93
2023/10/07 02:39:46;;;;;;;12.80;5.05;;;;;;;-143.29;100.00;62188.47;5072398;28;20021;-93
2023/10/07 02:42:28;;;;;;;9.52;3.83;;;;;;;-143.29;100.00;62188.47;5053331;28;20144;-91
2023/10/07 02:45:19;;;;;;;15.38;4.90;;;;;;;-143.29;100.00;62188.47;5053698;28;20383;-92
2023/10/07 02:47:50;;;;;;;6.78;3.60;;;;;;;-143.29;100.00;62188.47;5054535;28;20024;-91
2023/10/07 02:50:16;;;;;;;9.57;3.63;;;;;;;-143.29;100.00;62188.47;5054655;28;20035;-92
2023/10/07 02:52:45;;;;;;;5.50;3.45;;;;;;;-143.29;100.00;62188.47;5072362;28;20039;-91
2023/10/07 02:55:28;;;;;;;9.52;3.80;;;;;;;-143.29;100.00;62188.47;5053355;28;20435;-92
2023/10/07 02:57:57;;;;;;;9.93;4.40;;;;;;;-143.29;100.00;62188.47;5071030;28;20029;-94
2023/10/07 03:01:10;;;;;;;5.65;3.30;;;;;;;-143.29;100.00;62188.47;5054265;28;20024;-92
2023/10/07 03:05:59;;;;;;;7.50;3.58;;;;;;;-143.29;100.00;62188.47;5072502;28;20029;-93
2023/10/07 03:08:40;;;;;;;16.85;4.20;;;;;;;-143.29;100.00;62188.47;5054156;28;20020;-93
2023/10/07 03:11:11;;;;;;;11.33;4.97;;;;;;;-143.29;100.00;62188.47;5052832;28;20040;-92
2023/10/07 03:13:39;;;;;;;7.63;3.58;;;;;;;-143.29;100.00;62188.47;5070968;28;20033;-92
2023/10/07 03:16:28;;;;;;;9.52;4.32;;;;;;;-143.29;100.00;62188.47;5054199;28;20028;-92
2023/10/07 03:19:06;;;;;;;7.35;3.90;;;;;;;-143.29;100.00;62188.47;5071913;28;20410;-93
2023/10/07 03:24:11;;;;;;;10.23;4.10;;;;;;;-143.29;100.00;62188.47;5071910;28;20031;-92
2023/10/07 03:26:39;;;;;;;10.27;4.63;;;;;;;-143.29;100.00;62188.47;5052464;28;20037;-92
2023/10/07 03:29:05;;;;;;;9.75;4.05;;;;;;;-143.29;100.00;62188.47;5068689;28;20028;-92
2023/10/07 03:31:35;;;;;;;9.85;4.47;;;;;;;-143.29;100.00;62188.47;5052827;28;20189;-92
2023/10/07 03:34:07;;;;;;;10.45;5.00;;;;;;;-143.29;100.00;62188.47;5053923;28;20032;-91
2023/10/07 03:36:46;;;;;;;7.80;4.10;;;;;;;-143.29;100.00;62188.47;5071823;28;20385;-92
2023/10/07 03:39:17;;;;;;;9.18;4.22;;;;;;;-143.29;100.00;62188.47;5071680;28;20039;-92
2023/10/07 03:41:55;;;;;;;13.70;4.55;;;;;;;-143.29;100.00;62188.47;5053775;28;20351;-92
2023/10/07 03:44:25;;;;;;;8.48;4.28;;;;;;;-143.29;100.00;62188.47;5053745;28;20033;-91
2023/10/07 03:46:54;;;;;;;11.00;4.15;;;;;;;-143.29;100.00;62188.47;5052475;28;20028;-91
2023/10/07 03:49:23;;;;;;;5.88;4.10;;;;;;;-143.29;100.00;62188.47;5053606;28;20089;-92
2023/10/07 03:52:03;;;;;;;5.45;3.47;;;;;;;-143.29;100.00;62188.47;5053603;28;20070;-92
2023/10/07 03:54:30;;;;;;;6.25;3.33;;;;;;;-143.29;100.00;62188.47;5053593;28;20025;-93
2023/10/07 03:56:56;;;;;;;16.17;4.60;;;;;;;-143.29;100.00;62188.47;5055685;28;20039;-92
2023/10/07 03:59:23;;;;;;;5.80;3.38;;;;;;;-143.29;100.00;62188.47;5056604;28;20027;-92
2023/10/07 04:01:53;;;;;;;5.78;3.22;;;;;;;-143.29;100.00;62188.47;5035506;28;20417;-92
2023/10/07 04:04:22;;;;;;;5.20;3.33;;;;;;;-143.29;100.00;62188.47;5034270;28;20030;-92
2023/10/07 04:06:51;;;;;;;7.78;4.10;;;;;;;-143.29;100.00;62188.47;5018125;28;20054;-93
2023/10/07 04:09:17;;;;;;;9.50;3.75;;;;;;;-143.29;100.00;62188.47;5017695;28;20017;-92
2023/10/07 04:11:48;;;;;;;6.47;3.58;;;;;;;-143.29;100.00;62188.47;5017741;28;20033;-93
2023/10/07 04:14:31;;;;;;;9.52;4.10;;;;;;;-143.29;100.00;62188.47;5036627;28;20100;-92
2023/10/07 04:16:59;;;;;;;8.70;4.50;;;;;;;-143.29;100.00;62188.47;5057356;28;20036;-92
2023/10/07 04:21:55;;;;;;;11.65;3.35;;;;;;;-143.29;100.00;62188.47;5075435;28;20028;-93
2023/10/07 04:24:20;;;;;;;10.38;3.45;;;;;;;-143.29;100.00;62188.47;5057245;28;20051;-93
2023/10/07 04:27:02;;;;;;;7.90;4.30;;;;;;;-143.29;100.00;62188.47;5075175;28;20056;-94
2023/10/07 04:29:28;;;;;;;6.70;3.55;;;;;;;-143.29;100.00;62188.47;5069145;28;20025;-93
2023/10/07 04:31:54;;;;;;;6.65;3.90;;;;;;;-143.29;100.00;62188.47;5055171;28;20032;-92
2023/10/07 04:34:21;;;;;;;8.25;4.13;;;;;;;-143.29;100.00;62188.47;5037261;28;20025;-95
2023/10/07 04:39:28;;;;;;;11.38;4.85;;;;;;;-143.29;100.00;62188.47;5054828;28;20035;-92
2023/10/07 04:41:57;;;;;;;11.85;4.63;;;;;;;-143.29;100.00;62188.47;5036978;28;20450;-92
2023/10/07 04:45:00;;;;;;;10.30;4.40;;;;;;;-143.29;100.00;62188.47;5042534;28;20032;-92
2023/10/07 04:49:58;;;;;;;9.07;4.07;;;;;;;-143.29;100.00;62188.47;5074986;28;20558;-92
2023/10/07 04:52:30;;;;;;;7.88;4.30;;;;;;;-143.29;100.00;62188.47;5074786;28;20421;-92
2023/10/07 04:54:58;;;;;;;6.78;4.38;;;;;;;-143.29;100.00;62188.47;5056950;28;20017;-92
2023/10/07 04:57:56;;;;;;;8.65;4.50;;;;;;;-143.29;100.00;62188.47;5056847;28;20032;-92
2023/10/07 05:02:59;;;;;;;9.15;4.75;;;;;;;-143.29;100.00;62188.47;5074581;28;20037;-94
2023/10/07 05:05:31;;;;;;;11.10;4.47;;;;;;;-143.29;100.00;62188.47;5074684;28;20536;-93
2023/10/07 05:07:58;;;;;;;;;;;;;;;-143.29;100.00;62188.47;5055915;28;20032;-93
2023/10/07 05:10:28;;;;;;;8.32;3.80;;;;;;;-143.29;100.00;62188.47;5056417;28;20370;-92
2023/10/07 05:12:55;;;;;;;7.10;3.70;;;;;;;-143.29;100.00;62188.47;5054248;28;20031;-93
2023/10/07 05:15:21;;;;;;;7.35;3.58;;;;;;;-143.29;100.00;62188.47;5074349;28;20025;-92
2023/10/07 05:17:47;;;;;;;11.25;4.95;;;;;;;-143.29;100.00;62188.47;5074417;28;20028;-92
2023/10/07 05:20:27;;;;;;;9.02;4.78;;;;;;;-143.29;100.00;62188.47;5074326;28;20033;-92
2023/10/07 05:22:53;;;;;;;7.68;3.92;;;;;;;-143.29;100.00;62188.47;5056273;28;20126;-91
2023/10/07 05:25:19;;;;;;;7.18;3.67;;;;;;;-143.29;100.00;62188.47;5074179;28;20020;-92
2023/10/07 05:27:44;;;;;;;9.15;3.95;;;;;;;-143.29;100.00;62188.47;5054774;28;20039;-93
2023/10/07 05:30:12;;;;;;;7.53;4.13;;;;;;;-143.29;100.00;62188.47;5056294;28;20134;-92
2023/10/07 05:32:39;;;;;;;11.85;4.90;;;;;;;-143.29;100.00;62188.47;5074003;28;20363;-92
2023/10/07 05:35:05;;;;;;;8.88;3.60;;;;;;;-143.29;100.00;62188.47;5056096;28;20032;-92
2023/10/07 05:37:30;;;;;;;7.18;3.90;;;;;;;-143.29;100.00;62188.47;5055791;28;20036;-92
2023/10/07 05:39:56;;;;;;;9.02;3.88;;;;;;;-143.29;100.00;62188.47;5073866;28;20036;-93
2023/10/07 05:42:21;;;;;;;10.23;3.60;;;;;;;-143.29;100.00;62188.47;5054410;28;20032;-93
2023/10/07 05:44:48;;;;;;;6.75;4.13;;;;;;;-143.29;100.00;62188.47;5055759;28;20022;-92
2023/10/07 05:47:14;;;;;;;8.52;4.30;;;;;;;-143.29;100.00;62188.47;5056074;28;20024;-92
2023/10/07 05:49:40;;;;;;;12.70;4.68;;;;;;;-143.29;100.00;62188.47;5073682;28;20466;-92
2023/10/07 05:52:06;;;;;;;10.73;4.72;;;;;;;-143.29;100.00;62188.47;5073481;28;20028;-92
2023/10/07 05:54:31;;;;;;;8.05;4.15;;;;;;;-143.29;100.00;62188.47;5073561;28;20039;-92
2023/10/07 05:56:58;;;;;;;14.70;5.25;;;;;;;-143.29;100.00;62188.47;5071800;28;20071;-93
2023/10/07 05:59:24;;;;;;;8.10;4.68;;;;;;;-143.29;100.00;62188.47;5055700;28;20033;-91
2023/10/07 06:01:50;;;;;;;11.95;5.20;;;;;;;-143.29;100.00;62188.47;5073544;28;20026;-92
2023/10/07 06:04:15;;;;;;;14.85;5.28;;;;;;;-143.29;100.00;62188.47;5055699;28;20032;-93
2023/10/07 06:06:44;;;;;;;10.50;5.40;;;;;;;-143.29;100.00;62188.47;5055424;28;20032;-92
2023/10/07 06:09:16;;;;;;;8.10;4.55;;;;;;;-143.29;100.00;62188.47;5073221;28;20017;-92
2023/10/07 06:11:42;;;;;;;15.15;5.15;;;;;;;-143.29;100.00;62188.47;5053989;28;20036;-93
2023/10/07 06:14:07;;;;;;;9.98;4.68;;;;;;;-143.29;100.00;62188.47;5073084;28;20054;-92
2023/10/07 06:16:33;;;;;;;7.45;4.45;;;;;;;-143.29;100.00;62188.47;5055115;28;20024;-93
2023/10/07 06:18:58;;;;;;;9.70;4.75;;;;;;;-143.29;100.00;62188.47;5072711;28;20020;-92
2023/10/07 06:21:27;;;;;;;10.40;4.72;;;;;;;-143.29;100.00;62188.47;5055062;28;20372;-91
2023/10/07 06:23:54;;;;;;;9.50;5.38;;;;;;;-143.29;100.00;62188.47;5072954;28;20035;-93
2023/10/07 06:26:20;;;;;;;13.48;5.38;;;;;;;-143.29;100.00;62188.47;5053366;28;20032;-92
2023/10/07 06:28:48;;;;;;;12.18;4.63;;;;;;;-143.29;100.00;62188.47;5055131;28;20020;-92
2023/10/07 06:31:14;;;;;;;12.52;5.40;;;;;;;-143.29;100.00;62188.47;5054949;28;20025;-91
2023/10/07 06:33:45;;;;;;;10.35;5.13;;;;;;;-143.29;100.00;62188.47;5073214;28;20078;-92
2023/10/07 06:36:12;;;;;;;7.83;3.97;;;;;;;-143.29;100.00;62188.47;5054703;28;20086;-92
2023/10/07 06:38:53;;;;;;;6.70;4.28;;;;;;;-143.29;100.00;62188.47;5072704;28;20269;-93
2023/10/07 06:41:20;;;;;;;9.38;4.28;;;;;;;-143.29;100.00;62188.47;5059535;28;20115;-93
2023/10/07 06:43:53;;;;;;;10.75;5.22;;;;;;;-143.29;100.00;62188.47;5052654;28;20454;-92
2023/10/07 06:46:22;;;;;;;11.13;4.82;;;;;;;-143.29;100.00;62188.47;5052185;28;20467;-92
2023/10/07 06:48:50;;;;;;;10.55;4.90;;;;;;;-143.29;100.00;62188.47;5041425;28;20078;-92
2023/10/07 06:51:16;;;;;;;11.00;4.85;;;;;;;-143.29;100.00;62188.47;5055797;28;20059;-92
2023/10/07 06:53:45;;;;;;;9.52;4.97;;;;;;;-143.29;100.00;62188.47;5057336;28;20022;-92
2023/10/07 06:56:20;;;;;;;10.23;5.30;;;;;;;-143.29;100.00;62188.47;5072037;28;20478;-92
2023/10/07 06:58:54;;;;;;;12.57;7.13;;;;;;;-143.29;100.00;62188.47;5054546;28;20466;-92
2023/10/07 07:01:36;;;;;;;15.82;6.40;;;;;;;-143.29;100.00;62188.47;5068976;28;20036;-92
2023/10/07 07:04:09;;;;;;;11.55;5.90;;;;;;;-143.29;100.00;62188.47;5053356;28;20453;-92
2023/10/07 07:06:42;;;;;;;10.02;5.75;;;;;;;-143.29;100.00;62188.47;5052844;28;20025;-91
2023/10/07 07:11:59;;;;;;;10.55;6.40;;;;;;;-143.29;100.00;62188.47;5070872;28;20031;-92
2023/10/07 07:14:31;;;;;;;9.82;6.20;;;;;;;-143.29;100.00;62188.47;5041992;28;20112;-92
2023/10/07 07:16:57;;;;;;;;;;;;;;;-143.29;100.00;62188.47;5051665;28;20448;-92
2023/10/07 07:19:25;;;;;;;14.60;6.55;;;;;;;-143.29;100.00;62188.47;5051720;28;19924;-93
2023/10/07 07:21:51;;;;;;;8.23;6.03;;;;;;;-143.29;100.00;62188.47;5054103;28;20074;-92
2023/10/07 07:24:23;;;;;;;10.98;6.00;;;;;;;-143.29;100.00;62188.47;5051324;28;20017;-92
2023/10/07 07:26:52;;;;;;;10.95;6.32;;;;;;;-143.29;100.00;62188.47;5052916;28;20102;-92
2023/10/07 07:29:23;;;;;;;9.85;6.10;;;;;;;-143.29;100.00;62188.47;5050116;28;20033;-92
2023/10/07 07:31:49;;;;;;;9.48;6.20;;;;;;;-143.29;100.00;62188.47;5024463;28;20025;-92
2023/10/07 07:34:27;;;;;;;9.45;5.85;;;;;;;-143.29;100.00;62188.47;5014021;28;20025;-92
2023/10/07 07:37:04;;;;;;;10.40;5.95;;;;;;;-143.29;100.00;62188.47;5031712;28;20028;-94
2023/10/07 07:39:30;;;;;;;15.15;6.00;;;;;;;-143.29;100.00;62188.47;5031682;28;20087;-92
2023/10/07 07:42:00;;;;;;;10.80;5.82;;;;;;;-143.29;100.00;62188.47;5014082;28;20056;-93
2023/10/07 07:44:32;;;;;;;11.73;7.00;;;;;;;-143.29;100.00;62188.47;5040175;28;20036;-92
2023/10/07 07:47:03;;;;;;;10.65;5.85;;;;;;;-143.29;100.00;62188.47;5053603;28;20093;-93
2023/10/07 07:49:32;;;;;;;;;;;;;;;-143.29;100.00;62188.47;5072133;28;20024;-92
2023/10/07 07:52:02;;;;;;;12.95;7.20;;;;;;;-143.29;100.00;62188.47;5071713;28;19916;-93
2023/10/07 07:54:30;;;;;;;13.93;7.15;;;;;;;-143.29;100.00;62188.47;5068952;28;20058;-95
2023/10/07 07:56:58;;;;;;;10.45;6.28;;;;;;;-143.29;100.00;62188.47;5061298;28;20033;-92
2023/10/07 07:59:24;;;;;;;14.27;7.20;;;;;;;-143.29;100.00;62188.47;5034574;28;20119;-93
2023/10/07 08:02:11;;;;;;;9.70;6.63;;;;;;;-143.29;100.00;62188.47;5034136;28;20112;-94
2023/10/07 08:05:02;;;;;;;11.88;6.97;;;;;;;-143.29;100.00;62188.47;5033881;28;20075;-92
2023/10/07 08:07:27;;;;;;;8.95;5.88;;;;;;;-143.29;100.00;62188.47;5050739;28;20486;-91
2023/10/07 08:09:58;;;;;;;11.32;6.38;;;;;;;-143.29;100.00;62188.47;5051140;28;20051;-93
2023/10/07 08:12:32;;;;;;;11.32;6.78;;;;;;;-143.29;100.00;62188.47;5054556;28;20490;-93
2023/10/07 08:14:59;;;;;;;11.90;6.13;;;;;;;-143.29;100.00;62188.47;5050207;28;20059;-93
2023/10/07 08:17:28;;;;;;;11.95;6.30;;;;;;;-143.29;100.00;62188.47;5028636;28;20084;-93
2023/10/07 08:19:54;;;;;;;10.90;6.28;;;;;;;-143.29;100.00;62188.47;5033370;28;20484;-92
2023/10/07 08:22:20;;;;;;;9.55;5.65;;;;;;;-143.29;100.00;62188.47;5033387;28;20086;-93
2023/10/07 08:24:46;;;;;;;9.18;5.95;;;;;;;-143.29;100.00;62188.47;5066163;28;20083;-91
2023/10/07 08:27:44;;;;;;;8.35;5.75;;;;;;;-143.29;100.00;62188.47;5050246;28;20032;-93
2023/10/07 08:30:05;;;;;;;11.35;6.18;;;;;;;-143.29;100.00;62188.47;5065915;28;20060;-92
2023/10/07 08:32:46;;;;;;;9.43;5.18;;;;;;;-143.29;100.00;62188.47;5053221;28;20027;-93
2023/10/07 08:35:16;;;;;;;10.10;5.78;;;;;;;-143.29;100.00;62188.47;5071157;28;20071;-92
2023/10/07 08:37:45;;;;;;;10.95;5.57;;;;;;;-143.29;100.00;62188.47;5070702;28;20038;-93
2023/10/07 08:40:39;;;;;;;10.48;5.72;;;;;;;-143.29;100.00;62188.47;5070505;28;20029;-93
2023/10/07 08:43:10;;;;;;;10.23;5.28;;;;;;;-143.29;100.00;62188.47;5029133;28;20037;-94
2023/10/07 08:45:39;;;;;;;8.18;5.50;;;;;;;-143.29;100.00;62188.47;5037911;28;20021;-93
2023/10/07 08:48:17;;;;;;;12.30;5.43;;;;;;;-143.29;100.00;62188.47;5057023;28;20050;-92
2023/10/07 08:50:55;;;;;;;13.80;5.97;;;;;;;-143.29;100.00;62188.47;5056889;28;20059;-93
2023/10/07 08:53:23;;;;;;;10.25;5.72;;;;;;;-143.29;100.00;62188.47;5053306;28;20101;-94
2023/10/07 08:55:53;;;;;;;10.80;5.43;;;;;;;-143.29;100.00;62188.47;5036041;28;20025;-93
2023/10/07 08:58:22;;;;;;;9.95;5.72;;;;;;;-143.29;100.00;62188.47;5036215;28;20414;-92
2023/10/07 09:00:50;;;;;;;11.18;5.70;;;;;;;-143.29;100.00;62188.47;5055075;28;20029;-92
2023/10/07 09:03:19;;;;;;;7.70;5.28;;;;;;;-143.29;100.00;62188.47;5056432;28;20033;-92
2023/10/07 09:05:46;;;;;;;13.07;4.70;;;;;;;-143.29;100.00;62188.47;5058661;28;20375;-96
2023/10/07 09:08:12;;;;;;;10.60;5.82;;;;;;;-143.29;100.00;62188.47;5043437;28;20047;-93
2023/10/07 09:10:38;;;;;;;8.98;5.75;;;;;;;-143.29;100.00;62188.47;5037832;28;20048;-93
2023/10/07 09:13:05;;;;;;;8.63;5.35;;;;;;;-143.29;100.00;62188.47;5037972;28;20102;-93
2023/10/07 09:15:35;;;;;;;7.45;4.90;;;;;;;-143.29;100.00;62188.47;5052336;28;20051;-92
2023/10/07 09:18:04;;;;;;;9.15;5.60;;;;;;;-143.29;100.00;62188.47;5054395;28;20132;-92
2023/10/07 09:20:36;;;;;;;9.30;4.75;;;;;;;-143.29;100.00;62188.47;5071307;28;20111;-93
2023/10/07 09:23:07;;;;;;;11.23;4.90;;;;;;;-143.29;100.00;62188.47;5056035;28;20032;-92
2023/10/07 09:25:33;;;;;;;8.32;4.80;;;;;;;-143.29;100.00;62188.47;5049442;28;20045;-90
2023/10/07 09:28:01;;;;;;;9.50;5.32;;;;;;;-143.29;100.00;62188.47;5054326;28;20412;-91
2023/10/07 09:33:14;;;;;;;11.05;5.13;;;;;;;-143.29;100.00;62188.47;5080205;28;20031;-95
2023/10/07 09:35:42;;;;;;;;;;;;;;;-143.29;100.00;62188.47;5080342;28;20033;-96
2023/10/07 09:38:12;;;;;;;10.32;5.28;;;;;;;-143.29;100.00;62188.47;5056923;28;20387;-92
2023/10/07 09:43:26;;;;;;;12.45;5.18;;;;;;;-143.29;100.00;62188.47;5058937;28;20036;-91
2023/10/07 09:45:52;;;;;;;13.23;5.13;;;;;;;-143.29;100.00;62188.47;5067445;28;20029;-91
2023/10/07 09:48:24;;;;;;;10.57;5.47;;;;;;;-143.29;100.00;62188.47;5073704;28;20028;-92
2023/10/07 09:50:56;;;;;;;13.73;5.15;;;;;;;-143.29;100.00;62188.47;5068418;28;20521;-92
2023/10/07 09:53:30;;;;;;;7.28;4.47;;;;;;;-143.29;100.00;62188.47;5034991;28;20445;-92
2023/10/07 09:56:33;;;;;;;9.70;5.25;;;;;;;-143.29;100.00;62188.47;5055004;28;20017;-92
2023/10/07 09:59:37;;;;;;;11.20;4.68;;;;;;;-143.29;100.00;62188.47;5041251;28;20089;-95
2023/10/07 10:02:31;;;;;;;16.13;5.25;;;;;;;-143.29;100.00;62188.47;5015837;28;20403;-93
2023/10/07 10:05:26;;;;;;;9.13;4.88;;;;;;;-143.29;100.00;62188.47;5033957;28;20128;-95
2023/10/07 10:08:10;;;;;;;8.68;4.03;;;;;;;-143.29;100.00;62188.47;5033744;28;20029;-95
2023/10/07 10:10:44;;;;;;;11.63;4.35;;;;;;;-143.29;100.00;62188.47;5072330;28;20033;-93
2023/10/07 10:16:04;;;;;;;7.45;3.95;;;;;;;-143.29;100.00;62188.47;5054428;28;20506;-95
2023/10/07 10:18:38;;;;;;;8.60;4.40;;;;;;;-143.29;100.00;62188.47;5035374;28;20033;-93
2023/10/07 10:21:04;;;;;;;9.95;4.40;;;;;;;-143.29;100.00;62188.47;5034957;28;20049;-94
2023/10/07 10:23:33;;;;;;;5.68;4.13;;;;;;;-143.29;100.00;62188.47;5051898;28;20059;-92
2023/10/07 10:26:13;;;;;;;6.63;3.65;;;;;;;-143.29;100.00;62188.47;5030909;28;20303;-91
2023/10/07 10:28:55;;;;;;;7.13;3.85;;;;;;;-143.29;100.00;62188.47;5055579;28;20027;-89
2023/10/07 10:31:21;;;;;;;9.70;4.70;;;;;;;-143.29;100.00;62188.47;5065206;28;20029;-92
2023/10/07 10:33:50;;;;;;;8.35;4.70;;;;;;;-143.29;100.00;62188.47;5068937;28;20490;-92
2023/10/07 10:36:22;;;;;;;11.00;4.72;;;;;;;-143.29;100.00;62188.47;5054764;28;20020;-93
2023/10/07 10:38:48;;;;;;;7.35;4.53;;;;;;;-143.29;100.00;62188.47;5044480;28;20036;-92
2023/10/07 10:41:14;;;;;;;10.85;4.57;;;;;;;-143.29;100.00;62188.47;5034475;28;20493;-93
2023/10/07 10:43:39;;;;;;;5.78;3.63;;;;;;;-143.29;100.00;62188.47;5034800;28;20029;-90
2023/10/07 10:46:07;;;;;;;8.30;3.70;;;;;;;-143.29;100.00;62188.47;5053459;28;20036;-92
2023/10/07 10:48:38;;;;;;;8.23;3.85;;;;;;;-143.29;100.00;62188.47;5070144;28;20025;-93
2023/10/07 10:51:08;;;;;;;7.65;4.35;;;;;;;-143.29;100.00;62188.47;5054735;28;20115;-95
2023/10/07 10:53:36;;;;;;;7.15;4.07;;;;;;;-143.29;100.00;62188.47;5034674;28;20029;-91
2023/10/07 10:56:02;;;;;;;10.30;4.22;;;;;;;-143.29;100.00;62188.47;5040638;28;20059;-94
2023/10/07 10:58:29;;;;;;;9.35;4.00;;;;;;;-143.29;100.00;62188.47;5052426;28;20035;-92
2023/10/07 11:00:54;;;;;;;9.50;4.47;;;;;;;-143.29;100.00;62188.47;5051790;28;20036;-92
2023/10/07 11:03:23;;;;;;;8.18;3.85;;;;;;;-143.29;100.00;62188.47;5038073;28;20032;-95
2023/10/07 11:05:56;;;;;;;10.45;3.55;;;;;;;-143.29;100.00;62188.47;5043258;28;20068;-92
2023/10/07 11:08:25;;;;;;;8.43;3.97;;;;;;;-143.29;100.00;62188.47;5050367;28;20029;-92
2023/10/07 11:10:52;;;;;;;6.88;3.55;;;;;;;-143.29;100.00;62188.47;5033248;28;20083;-94
2023/10/07 11:13:18;;;;;;;8.38;3.75;;;;;;;-143.29;100.00;62188.47;5032418;28;20037;-95
2023/10/07 11:16:18;;;;;;;8.75;4.18;;;;;;;-143.29;100.00;62188.47;5047004;28;20036;-93
2023/10/07 11:18:44;;;;;;;11.13;4.25;;;;;;;-143.29;100.00;62188.47;5050331;28;20491;-93
2023/10/07 11:21:18;;;;;;;7.22;4.07;;;;;;;-143.29;100.00;62188.47;5036998;28;20033;-93
2023/10/07 11:23:49;;;;;;;7.75;4.78;;;;;;;-143.29;100.00;62188.47;5033696;28;20023;-93
2023/10/07 11:26:16;;;;;;;5.30;3.40;;;;;;;-143.29;100.00;62188.47;5033572;28;20028;-92
2023/10/07 11:28:43;;;;;;;5.82;3.72;;;;;;;-143.29;100.00;62188.47;5051209;28;20051;-93
2023/10/07 11:31:08;;;;;;;8.23;3.42;;;;;;;-143.29;100.00;62188.47;5052912;28;20025;-92
2023/10/07 11:33:34;;;;;;;9.30;4.65;;;;;;;-143.29;100.00;62188.47;5067729;28;20116;-92
2023/10/07 11:36:03;;;;;;;7.07;3.85;;;;;;;-143.29;100.00;62188.47;5070445;28;20028;-92
2023/10/07 11:38:32;;;;;;;7.18;4.05;;;;;;;-143.29;100.00;62188.47;5052959;28;20112;-91
2023/10/07 11:40:57;;;;;;;7.80;3.25;;;;;;;-143.29;100.00;62188.47;5071675;28;20032;-91
2023/10/07 11:43:23;;;;;;;6.07;3.55;;;;;;;-143.29;100.00;62188.47;5040313;28;20028;-91
2023/10/07 11:45:50;;;;;;;7.35;3.38;;;;;;;-143.29;100.00;62188.47;5051598;28;20376;-93
2023/10/07 11:48:15;;;;;;;15.77;5.80;;;;;;;-143.29;100.00;62188.47;5061328;28;20021;-93
2023/10/07 11:50:41;;;;;;;7.53;3.63;;;;;;;-143.29;100.00;62188.47;5048087;28;20375;-91
2023/10/07 11:53:07;;;;;;;6.53;3.90;;;;;;;-143.29;100.00;62188.47;5071722;28;20027;-90